createdAt,value
2022-09-18T00:00:39.035Z,12.00
2022-09-18T00:04:47.664Z,11.90
2022-09-18T00:08:58.342Z,11.90
2022-09-18T00:13:06.971Z,11.90
2022-09-18T00:17:15.599Z,11.90
2022-09-18T00:21:25.488Z,11.80
2022-09-18T00:25:34.046Z,11.80
2022-09-18T00:29:42.714Z,11.80
2022-09-18T00:33:51.280Z,11.80
2022-09-18T00:37:59.971Z,11.80
2022-09-18T00:42:10.134Z,11.90
2022-09-18T00:46:21.922Z,11.90
2022-09-18T00:50:30.694Z,11.80
2022-09-18T00:54:48.103Z,11.90
2022-09-18T00:58:57.439Z,11.90
2022-09-18T01:03:06.146Z,11.90
2022-09-18T01:07:29.657Z,11.90
2022-09-18T01:11:53.751Z,11.90
2022-09-18T01:16:08.279Z,11.90
2022-09-18T01:20:53.197Z,11.90
2022-09-18T01:25:16.984Z,11.90
2022-09-18T01:29:37.485Z,11.90
2022-09-18T01:33:54.942Z,11.90
2022-09-18T01:38:24.389Z,11.90
2022-09-18T01:42:35.224Z,11.90
2022-09-18T01:46:46.392Z,11.90
2022-09-18T01:50:57.957Z,11.90
2022-09-18T01:55:09.821Z,11.80
2022-09-18T01:59:21.503Z,11.80
2022-09-18T02:03:37.129Z,11.80
2022-09-18T02:07:51.640Z,11.80
2022-09-18T02:12:02.822Z,11.80
2022-09-18T02:16:23.262Z,11.80
2022-09-18T02:20:34.044Z,11.80
2022-09-18T02:25:03.393Z,11.80
2022-09-18T02:29:14.397Z,11.70
2022-09-18T02:33:28.491Z,11.70
2022-09-18T02:37:56.127Z,11.70
2022-09-18T02:42:13.713Z,11.70
2022-09-18T02:46:34.254Z,11.70
2022-09-18T02:51:03.404Z,11.70
2022-09-18T02:55:15.031Z,11.70
2022-09-18T02:59:26.732Z,11.70
2022-09-18T03:03:38.705Z,11.70
2022-09-18T03:07:47.338Z,11.70
2022-09-18T03:11:55.932Z,11.70
2022-09-18T03:16:04.773Z,11.70
2022-09-18T03:20:13.501Z,11.70
2022-09-18T03:24:22.074Z,11.70
2022-09-18T03:28:32.358Z,11.70
2022-09-18T03:32:40.921Z,11.70
2022-09-18T03:36:49.483Z,11.70
2022-09-18T03:40:58.055Z,11.70
2022-09-18T03:45:18.713Z,11.70
2022-09-18T03:49:27.378Z,11.60
2022-09-18T03:53:36.313Z,11.60
2022-09-18T03:57:47.284Z,11.60
2022-09-18T04:01:56.007Z,11.60
2022-09-18T04:06:04.861Z,11.60
2022-09-18T04:10:14.343Z,11.70
2022-09-18T04:14:25.607Z,11.70
2022-09-18T04:18:33.735Z,11.70
2022-09-18T04:22:42.273Z,11.60
2022-09-18T04:26:50.842Z,11.70
2022-09-18T04:30:59.879Z,11.70
2022-09-18T04:35:08.915Z,11.70
2022-09-18T04:39:18.286Z,11.70
2022-09-18T04:43:28.397Z,11.70
2022-09-18T04:47:37.035Z,11.60
2022-09-18T04:51:46.154Z,11.60
2022-09-18T04:55:54.892Z,11.60
2022-09-18T05:00:05.029Z,11.70
2022-09-18T05:04:33.005Z,11.70
2022-09-18T05:08:41.634Z,11.70
2022-09-18T05:12:50.161Z,11.70
2022-09-18T05:16:59.200Z,11.70
2022-09-18T05:21:08.544Z,11.70
2022-09-18T05:25:17.276Z,11.70
2022-09-18T05:29:25.906Z,11.70
2022-09-18T05:33:35.148Z,11.80
2022-09-18T05:37:43.673Z,11.80
2022-09-18T05:41:52.415Z,11.80
2022-09-18T05:46:02.544Z,11.80
2022-09-18T05:50:11.718Z,11.80
2022-09-18T05:54:20.342Z,11.80
2022-09-18T05:58:28.867Z,11.80
2022-09-18T06:02:37.624Z,11.80
2022-09-18T06:06:46.229Z,11.80
2022-09-18T06:10:54.781Z,11.80
2022-09-18T06:15:03.310Z,11.80
2022-09-18T06:19:31.777Z,11.80
2022-09-18T06:23:40.318Z,11.90
2022-09-18T06:27:51.999Z,11.80
2022-09-18T06:32:00.989Z,11.80
2022-09-18T06:36:14.094Z,11.80
2022-09-18T06:40:26.254Z,11.80
2022-09-18T06:44:34.912Z,11.80
2022-09-18T06:48:43.437Z,11.80
2022-09-18T06:52:52.479Z,11.80
2022-09-18T06:57:01.003Z,11.80
2022-09-18T07:01:09.679Z,11.80
2022-09-18T07:05:18.362Z,11.90
2022-09-18T07:09:26.993Z,11.90
2022-09-18T07:13:37.500Z,11.90
2022-09-18T07:17:46.875Z,12.00
2022-09-18T07:21:55.541Z,12.10
2022-09-18T07:26:05.399Z,12.20
2022-09-18T07:30:14.663Z,12.30
2022-09-18T07:34:24.900Z,12.30
2022-09-18T07:38:34.344Z,12.40
2022-09-18T07:42:43.007Z,12.40
2022-09-18T07:46:53.610Z,12.40
2022-09-18T07:51:03.669Z,12.50
2022-09-18T07:55:12.354Z,12.50
2022-09-18T07:59:21.083Z,12.50
2022-09-18T08:03:30.184Z,12.50
2022-09-18T08:07:39.265Z,12.50
2022-09-18T08:11:48.302Z,12.50
2022-09-18T08:15:58.013Z,12.50
2022-09-18T08:20:09.096Z,12.50
2022-09-18T08:24:37.024Z,12.50
2022-09-18T08:28:45.856Z,12.60
2022-09-18T08:33:01.071Z,12.70
2022-09-18T08:37:09.764Z,12.90
2022-09-18T08:41:27.512Z,13.00
2022-09-18T08:45:39.057Z,13.10
2022-09-18T08:50:08.424Z,13.10
2022-09-18T08:54:33.335Z,13.10
2022-09-18T08:58:45.036Z,13.20
2022-09-18T09:02:59.468Z,13.20
2022-09-18T09:07:43.262Z,13.30
2022-09-18T09:12:13.079Z,13.20
2022-09-18T09:16:30.693Z,13.30
2022-09-18T09:20:56.459Z,13.30
2022-09-18T09:25:28.715Z,13.40
2022-09-18T09:29:40.450Z,13.50
2022-09-18T09:33:54.752Z,13.50
2022-09-18T09:38:06.371Z,13.50
2022-09-18T09:42:21.896Z,13.50
2022-09-18T09:46:52.293Z,13.60
2022-09-18T09:51:13.235Z,13.70
2022-09-18T09:55:39.790Z,13.80
2022-09-18T09:59:57.328Z,13.90
2022-09-18T10:04:21.203Z,13.90
2022-09-18T10:08:38.681Z,14.00
2022-09-18T10:12:56.927Z,13.90
2022-09-18T10:17:07.007Z,14.00
2022-09-18T10:21:36.381Z,13.90
2022-09-18T10:26:12.764Z,13.80
2022-09-18T10:30:21.493Z,13.60
2022-09-18T10:34:50.807Z,13.50
2022-09-18T10:39:00.978Z,13.50
2022-09-18T10:43:18.817Z,13.50
2022-09-18T10:47:30.374Z,13.60
2022-09-18T10:51:39.142Z,13.60
2022-09-18T10:55:55.181Z,13.50
2022-09-18T11:00:04.138Z,13.40
2022-09-18T11:04:15.891Z,13.30
2022-09-18T11:08:27.479Z,13.40
2022-09-18T11:12:36.319Z,13.40
2022-09-18T11:16:48.054Z,13.40
2022-09-18T11:20:58.935Z,13.40
2022-09-18T11:25:28.638Z,13.40
2022-09-18T11:29:39.664Z,13.40
2022-09-18T11:33:57.073Z,13.40
2022-09-18T11:38:07.908Z,13.40
2022-09-18T11:42:18.296Z,13.40
2022-09-18T11:46:36.025Z,13.50
2022-09-18T11:50:46.201Z,13.40
2022-09-18T11:54:57.743Z,13.40
2022-09-18T11:59:19.070Z,13.30
2022-09-18T12:03:36.706Z,13.40
2022-09-18T12:07:49.977Z,13.30
2022-09-18T12:12:11.505Z,13.30
2022-09-18T12:16:39.569Z,13.30
2022-09-18T12:20:51.283Z,13.30
2022-09-18T12:25:00.013Z,13.30
2022-09-18T12:29:36.991Z,13.20
2022-09-18T12:34:03.562Z,13.20
2022-09-18T12:38:31.657Z,13.20
2022-09-18T12:43:15.437Z,13.20
2022-09-18T12:47:29.633Z,13.30
2022-09-18T12:51:44.461Z,13.30
2022-09-18T12:56:05.169Z,13.20
2022-09-18T13:00:19.069Z,13.20
2022-09-18T13:04:48.785Z,13.10
2022-09-18T13:09:03.626Z,13.10
2022-09-18T13:13:31.792Z,13.10
2022-09-18T13:17:44.221Z,13.00
2022-09-18T13:21:53.941Z,13.00
2022-09-18T13:26:05.001Z,13.00
2022-09-18T13:30:18.927Z,13.00
2022-09-18T13:34:28.555Z,12.90
2022-09-18T13:38:37.898Z,13.00
2022-09-18T13:42:46.570Z,13.00
2022-09-18T13:47:01.153Z,13.00
2022-09-18T13:51:32.155Z,13.00
2022-09-18T13:55:51.086Z,13.00
2022-09-18T14:00:04.887Z,13.00
2022-09-18T14:04:44.855Z,13.00
2022-09-18T14:08:54.063Z,12.90
2022-09-18T14:13:18.254Z,12.90
2022-09-18T14:17:27.189Z,12.90
2022-09-18T14:21:41.559Z,12.90
2022-09-18T14:25:50.142Z,12.80
2022-09-18T14:30:02.102Z,12.80
2022-09-18T14:34:47.681Z,12.80
2022-09-18T14:38:56.725Z,12.70
2022-09-18T14:43:08.422Z,12.60
2022-09-18T14:47:25.203Z,12.00
2022-09-18T14:51:49.382Z,11.80
2022-09-18T14:55:47.450Z,11.80
2022-09-18T14:59:59.323Z,11.50
2022-09-18T15:04:10.912Z,11.30
2022-09-18T15:08:26.719Z,11.30
2022-09-18T15:12:35.658Z,11.30
2022-09-18T15:16:44.232Z,11.20
2022-09-18T15:20:54.612Z,11.30
2022-09-18T15:25:03.329Z,11.30
2022-09-18T15:29:31.078Z,11.30
2022-09-18T15:33:43.124Z,11.40
2022-09-18T15:38:02.542Z,11.40
2022-09-18T15:42:27.494Z,11.30
2022-09-18T15:46:37.857Z,11.30
2022-09-18T15:50:47.212Z,11.30
2022-09-18T15:55:23.393Z,11.30
2022-09-18T15:59:44.712Z,11.30
2022-09-18T16:03:59.381Z,11.40
2022-09-18T16:08:10.953Z,11.40
2022-09-18T16:12:52.383Z,11.40
2022-09-18T16:17:20.415Z,11.40
2022-09-18T16:21:30.597Z,11.50
2022-09-18T16:25:41.337Z,11.50
2022-09-18T16:29:50.235Z,11.50
2022-09-18T16:34:01.878Z,11.50
2022-09-18T16:38:10.873Z,11.50
2022-09-18T16:42:20.525Z,11.40
2022-09-18T16:47:01.938Z,11.40
2022-09-18T16:51:30.110Z,11.40
2022-09-18T16:55:41.813Z,11.30
2022-09-18T16:59:52.012Z,11.10
2022-09-18T17:04:00.809Z,11.10
2022-09-18T17:08:09.334Z,11.10
2022-09-18T17:12:17.963Z,11.00
2022-09-18T17:16:46.081Z,11.00
2022-09-18T17:20:54.778Z,11.10
2022-09-18T17:25:03.305Z,11.20
2022-09-18T17:29:12.200Z,11.20
2022-09-18T17:33:40.431Z,11.20
2022-09-18T17:37:50.698Z,11.10
2022-09-18T17:41:59.538Z,11.10
2022-09-18T17:46:10.986Z,11.20
2022-09-18T17:50:20.411Z,11.20
2022-09-18T17:54:29.614Z,11.20
2022-09-18T17:58:39.986Z,11.20
2022-09-18T18:02:49.535Z,11.10
2022-09-18T18:06:58.163Z,11.00
2022-09-18T18:11:09.865Z,11.10
2022-09-18T18:15:19.517Z,11.10
2022-09-18T18:19:28.631Z,11.00
2022-09-18T18:23:40.536Z,11.00
2022-09-18T18:27:49.435Z,10.90
2022-09-18T18:31:58.798Z,10.80
2022-09-18T18:36:19.148Z,10.70
2022-09-18T18:40:28.046Z,10.80
2022-09-18T18:44:36.888Z,10.70
2022-09-18T18:48:46.364Z,10.70
2022-09-18T18:53:01.953Z,10.70
2022-09-18T19:01:25.896Z,10.60
2022-09-18T19:05:35.154Z,10.60
2022-09-18T19:09:43.679Z,10.50
2022-09-18T19:13:54.040Z,10.50
2022-09-18T19:18:03.075Z,10.50
2022-09-18T19:22:16.696Z,10.40
2022-09-18T19:26:27.819Z,10.40
2022-09-18T19:30:41.263Z,10.40
2022-09-18T19:34:49.891Z,10.40
2022-09-18T19:39:01.284Z,10.30
2022-09-18T19:43:15.852Z,10.30
2022-09-18T19:47:36.439Z,10.30
2022-09-18T19:51:45.499Z,10.30
2022-09-18T19:55:54.128Z,10.30
2022-09-18T20:00:03.168Z,10.30
2022-09-18T20:04:11.796Z,10.30
2022-09-18T20:08:20.937Z,10.20
2022-09-18T20:12:31.600Z,10.20
2022-09-18T20:16:39.781Z,10.20
2022-09-18T20:21:08.843Z,10.20
2022-09-18T20:25:17.379Z,10.20
2022-09-18T20:29:27.539Z,10.20
2022-09-18T20:33:36.263Z,10.10
2022-09-18T20:37:44.892Z,10.10
2022-09-18T20:41:54.351Z,10.10
2022-09-18T20:46:06.617Z,10.10
2022-09-18T20:50:17.165Z,10.10
2022-09-18T20:54:25.961Z,10.00
2022-09-18T20:58:35.308Z,10.00
2022-09-18T21:02:45.927Z,10.00
2022-09-18T21:06:56.096Z,10.00
2022-09-18T21:11:05.062Z,10.00
2022-09-18T21:15:15.177Z,10.00
2022-09-18T21:19:25.724Z,10.00
2022-09-18T21:23:52.496Z,9.90
2022-09-18T21:28:02.703Z,9.90
2022-09-18T21:32:12.152Z,9.90
2022-09-18T21:36:22.558Z,9.90
2022-09-18T21:40:31.785Z,9.90
2022-09-18T21:44:40.761Z,9.90
2022-09-18T21:48:52.306Z,9.80
2022-09-18T21:53:00.888Z,9.80
2022-09-18T21:57:09.903Z,9.80
2022-09-18T22:01:21.355Z,9.80
2022-09-18T22:05:30.450Z,9.80
2022-09-18T22:09:39.295Z,9.80
2022-09-18T22:13:48.434Z,9.80
2022-09-18T22:17:57.045Z,9.70
2022-09-18T22:22:05.675Z,9.70
2022-09-18T22:26:14.301Z,9.80
2022-09-18T22:30:23.147Z,9.80
2022-09-18T22:34:34.822Z,9.80
2022-09-18T22:38:43.566Z,9.80
2022-09-18T22:42:52.137Z,9.80
2022-09-18T22:47:02.214Z,9.80
2022-09-18T22:51:13.454Z,9.80
2022-09-18T22:55:21.972Z,9.80
2022-09-18T22:59:30.603Z,9.80
2022-09-18T23:03:39.814Z,9.80
2022-09-18T23:07:48.554Z,9.80
2022-09-18T23:11:57.626Z,9.80
2022-09-18T23:16:13.742Z,9.80
2022-09-18T23:20:42.181Z,9.80
2022-09-18T23:24:51.049Z,9.90
2022-09-18T23:29:20.884Z,9.90
2022-09-18T23:33:29.604Z,9.90
2022-09-18T23:37:38.170Z,9.90
2022-09-18T23:41:47.271Z,9.90
2022-09-18T23:45:58.448Z,9.90
2022-09-18T23:50:07.850Z,9.90
2022-09-18T23:54:19.403Z,10.00
2022-09-18T23:58:28.033Z,10.00
